sensor_id;sensor_type;location;lat;lon;timestamp;temperature;humidity
22035;DHT22;11181;51.002;4.356;2023-10-13T00:01:03;19.80;99.90
22035;DHT22;11181;51.002;4.356;2023-10-13T00:03:32;19.80;99.90
22035;DHT22;11181;51.002;4.356;2023-10-13T00:05:59;19.70;99.90
22035;DHT22;11181;51.002;4.356;2023-10-13T00:08:29;19.70;99.90
22035;DHT22;11181;51.002;4.356;2023-10-13T00:10:56;19.80;99.90
22035;DHT22;11181;51.002;4.356;2023-10-13T00:13:26;19.70;99.90
22035;DHT22;11181;51.002;4.356;2023-10-13T00:15:54;19.70;99.90
22035;DHT22;11181;51.002;4.356;2023-10-13T00:18:27;19.70;99.90
22035;DHT22;11181;51.002;4.356;2023-10-13T00:20:58;19.80;99.90
22035;DHT22;11181;51.002;4.356;2023-10-13T00:23:25;19.80;99.90
22035;DHT22;11181;51.002;4.356;2023-10-13T00:25:53;19.70;99.90
22035;DHT22;11181;51.002;4.356;2023-10-13T00:28:28;19.60;99.90
22035;DHT22;11181;51.002;4.356;2023-10-13T00:31:09;19.60;99.90
22035;DHT22;11181;51.002;4.356;2023-10-13T00:33:39;19.60;99.90
22035;DHT22;11181;51.002;4.356;2023-10-13T00:36:07;19.60;99.90
22035;DHT22;11181;51.002;4.356;2023-10-13T00:38:34;19.70;99.90
22035;DHT22;11181;51.002;4.356;2023-10-13T00:41:02;19.70;99.90
22035;DHT22;11181;51.002;4.356;2023-10-13T00:43:44;19.70;99.90
22035;DHT22;11181;51.002;4.356;2023-10-13T00:46:30;19.70;99.90
22035;DHT22;11181;51.002;4.356;2023-10-13T00:49:00;19.60;99.90
22035;DHT22;11181;51.002;4.356;2023-10-13T00:51:27;19.60;99.90
22035;DHT22;11181;51.002;4.356;2023-10-13T00:54:02;19.70;99.90
22035;DHT22;11181;51.002;4.356;2023-10-13T00:56:33;19.70;99.90
22035;DHT22;11181;51.002;4.356;2023-10-13T00:59:07;19.70;99.90
22035;DHT22;11181;51.002;4.356;2023-10-13T01:01:35;19.70;99.90
22035;DHT22;11181;51.002;4.356;2023-10-13T01:04:04;19.70;99.90
22035;DHT22;11181;51.002;4.356;2023-10-13T01:06:37;19.70;99.90
22035;DHT22;11181;51.002;4.356;2023-10-13T01:09:06;19.70;99.90
22035;DHT22;11181;51.002;4.356;2023-10-13T01:11:39;19.80;99.90
22035;DHT22;11181;51.002;4.356;2023-10-13T01:14:08;19.80;99.90
22035;DHT22;11181;51.002;4.356;2023-10-13T01:16:36;19.80;99.90
22035;DHT22;11181;51.002;4.356;2023-10-13T01:19:06;19.80;99.90
22035;DHT22;11181;51.002;4.356;2023-10-13T01:21:32;19.70;99.90
22035;DHT22;11181;51.002;4.356;2023-10-13T01:24:02;19.70;99.90
22035;DHT22;11181;51.002;4.356;2023-10-13T01:26:33;19.70;99.90
22035;DHT22;11181;51.002;4.356;2023-10-13T01:29:04;19.60;99.90
22035;DHT22;11181;51.002;4.356;2023-10-13T01:31:40;19.70;99.90
22035;DHT22;11181;51.002;4.356;2023-10-13T01:34:12;19.70;99.90
22035;DHT22;11181;51.002;4.356;2023-10-13T01:36:40;19.70;99.90
22035;DHT22;11181;51.002;4.356;2023-10-13T01:39:08;19.70;99.90
22035;DHT22;11181;51.002;4.356;2023-10-13T01:41:36;19.70;99.90
22035;DHT22;11181;51.002;4.356;2023-10-13T01:44:04;19.70;99.90
22035;DHT22;11181;51.002;4.356;2023-10-13T01:46:32;19.70;99.90
22035;DHT22;11181;51.002;4.356;2023-10-13T01:48:58;19.80;99.90
22035;DHT22;11181;51.002;4.356;2023-10-13T01:51:25;19.70;99.90
22035;DHT22;11181;51.002;4.356;2023-10-13T01:53:53;19.70;99.90
22035;DHT22;11181;51.002;4.356;2023-10-13T01:56:25;19.60;99.90
22035;DHT22;11181;51.002;4.356;2023-10-13T01:58:55;19.70;99.90
22035;DHT22;11181;51.002;4.356;2023-10-13T02:01:21;19.80;99.90
22035;DHT22;11181;51.002;4.356;2023-10-13T02:03:52;19.80;99.90
22035;DHT22;11181;51.002;4.356;2023-10-13T02:06:28;19.90;99.90
22035;DHT22;11181;51.002;4.356;2023-10-13T02:08:59;19.80;99.90
22035;DHT22;11181;51.002;4.356;2023-10-13T02:11:37;19.80;99.90
22035;DHT22;11181;51.002;4.356;2023-10-13T02:14:03;19.80;99.90
22035;DHT22;11181;51.002;4.356;2023-10-13T02:16:30;19.70;99.90
22035;DHT22;11181;51.002;4.356;2023-10-13T02:18:56;19.70;99.90
22035;DHT22;11181;51.002;4.356;2023-10-13T02:21:30;19.70;99.90
22035;DHT22;11181;51.002;4.356;2023-10-13T02:23:57;19.60;99.90
22035;DHT22;11181;51.002;4.356;2023-10-13T02:26:30;19.60;99.90
22035;DHT22;11181;51.002;4.356;2023-10-13T02:28:58;19.50;99.90
22035;DHT22;11181;51.002;4.356;2023-10-13T02:31:27;19.60;99.90
22035;DHT22;11181;51.002;4.356;2023-10-13T02:33:53;19.60;99.90
22035;DHT22;11181;51.002;4.356;2023-10-13T02:36:20;19.60;99.90
22035;DHT22;11181;51.002;4.356;2023-10-13T02:38:48;19.50;99.90
22035;DHT22;11181;51.002;4.356;2023-10-13T02:41:17;19.60;99.90
22035;DHT22;11181;51.002;4.356;2023-10-13T02:43:51;19.60;99.90
22035;DHT22;11181;51.002;4.356;2023-10-13T02:46:20;19.60;99.90
22035;DHT22;11181;51.002;4.356;2023-10-13T02:48:49;19.50;99.90
22035;DHT22;11181;51.002;4.356;2023-10-13T02:51:19;19.50;99.90
22035;DHT22;11181;51.002;4.356;2023-10-13T02:53:51;19.60;99.90
22035;DHT22;11181;51.002;4.356;2023-10-13T02:56:18;19.60;99.90
22035;DHT22;11181;51.002;4.356;2023-10-13T02:58:47;19.70;99.90
22035;DHT22;11181;51.002;4.356;2023-10-13T03:01:20;19.70;99.90
22035;DHT22;11181;51.002;4.356;2023-10-13T03:03:49;19.70;99.90
22035;DHT22;11181;51.002;4.356;2023-10-13T03:06:20;19.70;99.90
22035;DHT22;11181;51.002;4.356;2023-10-13T03:08:48;19.70;99.90
22035;DHT22;11181;51.002;4.356;2023-10-13T03:11:16;19.70;99.90
22035;DHT22;11181;51.002;4.356;2023-10-13T03:13:47;19.60;99.90
22035;DHT22;11181;51.002;4.356;2023-10-13T03:16:17;19.60;99.90
22035;DHT22;11181;51.002;4.356;2023-10-13T03:18:47;19.70;99.90
22035;DHT22;11181;51.002;4.356;2023-10-13T03:21:22;19.80;99.90
22035;DHT22;11181;51.002;4.356;2023-10-13T03:23:56;19.70;99.90
22035;DHT22;11181;51.002;4.356;2023-10-13T03:26:29;19.80;99.90
22035;DHT22;11181;51.002;4.356;2023-10-13T03:29:00;19.80;99.90
22035;DHT22;11181;51.002;4.356;2023-10-13T03:31:29;19.70;99.90
22035;DHT22;11181;51.002;4.356;2023-10-13T03:34:04;19.70;99.90
22035;DHT22;11181;51.002;4.356;2023-10-13T03:36:37;19.70;99.90
22035;DHT22;11181;51.002;4.356;2023-10-13T03:39:23;19.70;99.90
22035;DHT22;11181;51.002;4.356;2023-10-13T03:41:55;19.70;99.90
22035;DHT22;11181;51.002;4.356;2023-10-13T03:44:22;19.60;99.90
22035;DHT22;11181;51.002;4.356;2023-10-13T03:46:49;19.70;99.90
22035;DHT22;11181;51.002;4.356;2023-10-13T03:49:21;19.60;99.90
22035;DHT22;11181;51.002;4.356;2023-10-13T03:51:50;19.60;99.90
22035;DHT22;11181;51.002;4.356;2023-10-13T03:54:20;19.60;99.90
22035;DHT22;11181;51.002;4.356;2023-10-13T03:56:47;19.60;99.90
22035;DHT22;11181;51.002;4.356;2023-10-13T03:59:18;19.60;99.90
22035;DHT22;11181;51.002;4.356;2023-10-13T04:01:45;19.50;99.90
22035;DHT22;11181;51.002;4.356;2023-10-13T04:04:13;19.50;99.90
22035;DHT22;11181;51.002;4.356;2023-10-13T04:06:42;19.60;99.90
22035;DHT22;11181;51.002;4.356;2023-10-13T04:09:23;19.60;99.90
22035;DHT22;11181;51.002;4.356;2023-10-13T04:12:08;19.60;99.90
22035;DHT22;11181;51.002;4.356;2023-10-13T04:15:09;19.60;99.90
22035;DHT22;11181;51.002;4.356;2023-10-13T04:17:46;19.60;99.90
22035;DHT22;11181;51.002;4.356;2023-10-13T04:20:20;19.60;99.90
22035;DHT22;11181;51.002;4.356;2023-10-13T04:23:11;19.60;99.90
22035;DHT22;11181;51.002;4.356;2023-10-13T04:25:52;19.70;99.90
22035;DHT22;11181;51.002;4.356;2023-10-13T04:28:31;19.70;99.90
22035;DHT22;11181;51.002;4.356;2023-10-13T04:31:17;19.70;99.90
22035;DHT22;11181;51.002;4.356;2023-10-13T04:34:07;19.70;99.90
22035;DHT22;11181;51.002;4.356;2023-10-13T04:36:41;19.70;99.90
22035;DHT22;11181;51.002;4.356;2023-10-13T04:39:12;19.50;99.90
22035;DHT22;11181;51.002;4.356;2023-10-13T04:41:55;19.50;99.90
22035;DHT22;11181;51.002;4.356;2023-10-13T04:44:24;19.50;99.90
22035;DHT22;11181;51.002;4.356;2023-10-13T04:47:09;19.50;99.90
22035;DHT22;11181;51.002;4.356;2023-10-13T04:49:43;19.60;99.90
22035;DHT22;11181;51.002;4.356;2023-10-13T04:52:18;19.60;99.90
22035;DHT22;11181;51.002;4.356;2023-10-13T04:55:05;19.50;99.90
22035;DHT22;11181;51.002;4.356;2023-10-13T04:58:02;19.50;99.90
22035;DHT22;11181;51.002;4.356;2023-10-13T05:00:40;19.50;99.90
22035;DHT22;11181;51.002;4.356;2023-10-13T05:03:34;19.50;99.90
22035;DHT22;11181;51.002;4.356;2023-10-13T05:06:19;19.50;99.90
22035;DHT22;11181;51.002;4.356;2023-10-13T05:09:03;19.50;99.90
22035;DHT22;11181;51.002;4.356;2023-10-13T05:12:03;19.40;99.90
22035;DHT22;11181;51.002;4.356;2023-10-13T05:14:48;19.40;99.90
22035;DHT22;11181;51.002;4.356;2023-10-13T05:17:34;19.40;99.90
22035;DHT22;11181;51.002;4.356;2023-10-13T05:20:19;19.40;99.90
22035;DHT22;11181;51.002;4.356;2023-10-13T05:23:03;19.40;99.90
22035;DHT22;11181;51.002;4.356;2023-10-13T05:25:48;19.40;99.90
22035;DHT22;11181;51.002;4.356;2023-10-13T05:28:30;19.40;99.90
22035;DHT22;11181;51.002;4.356;2023-10-13T05:31:14;19.40;99.90
22035;DHT22;11181;51.002;4.356;2023-10-13T05:33:58;19.50;99.90
22035;DHT22;11181;51.002;4.356;2023-10-13T05:36:43;19.40;99.90
22035;DHT22;11181;51.002;4.356;2023-10-13T05:39:27;19.40;99.90
22035;DHT22;11181;51.002;4.356;2023-10-13T05:42:11;19.50;99.90
22035;DHT22;11181;51.002;4.356;2023-10-13T05:44:56;19.50;99.90
22035;DHT22;11181;51.002;4.356;2023-10-13T05:47:46;19.50;99.90
22035;DHT22;11181;51.002;4.356;2023-10-13T05:50:13;19.60;99.90
22035;DHT22;11181;51.002;4.356;2023-10-13T05:52:54;19.60;99.90
22035;DHT22;11181;51.002;4.356;2023-10-13T05:55:39;19.50;99.90
22035;DHT22;11181;51.002;4.356;2023-10-13T05:58:23;19.50;99.90
22035;DHT22;11181;51.002;4.356;2023-10-13T06:01:13;19.50;99.90
22035;DHT22;11181;51.002;4.356;2023-10-13T06:03:57;19.50;99.90
22035;DHT22;11181;51.002;4.356;2023-10-13T06:06:41;19.40;99.90
22035;DHT22;11181;51.002;4.356;2023-10-13T06:09:25;19.40;99.90
22035;DHT22;11181;51.002;4.356;2023-10-13T06:12:10;19.40;99.90
22035;DHT22;11181;51.002;4.356;2023-10-13T06:14:54;19.40;99.90
22035;DHT22;11181;51.002;4.356;2023-10-13T06:17:39;19.40;99.90
22035;DHT22;11181;51.002;4.356;2023-10-13T06:20:29;19.50;99.90
22035;DHT22;11181;51.002;4.356;2023-10-13T06:23:14;19.50;99.90
22035;DHT22;11181;51.002;4.356;2023-10-13T06:25:58;19.50;99.90
22035;DHT22;11181;51.002;4.356;2023-10-13T06:28:43;19.50;99.90
22035;DHT22;11181;51.002;4.356;2023-10-13T06:31:12;19.60;99.90
22035;DHT22;11181;51.002;4.356;2023-10-13T06:33:48;19.60;99.90
22035;DHT22;11181;51.002;4.356;2023-10-13T06:36:15;19.50;99.90
22035;DHT22;11181;51.002;4.356;2023-10-13T06:38:43;19.40;99.90
22035;DHT22;11181;51.002;4.356;2023-10-13T06:41:10;19.40;99.90
22035;DHT22;11181;51.002;4.356;2023-10-13T06:43:45;19.50;99.90
22035;DHT22;11181;51.002;4.356;2023-10-13T06:46:25;19.50;99.90
22035;DHT22;11181;51.002;4.356;2023-10-13T06:48:55;19.50;99.90
22035;DHT22;11181;51.002;4.356;2023-10-13T06:51:25;19.50;99.90
22035;DHT22;11181;51.002;4.356;2023-10-13T06:53:56;19.60;99.90
22035;DHT22;11181;51.002;4.356;2023-10-13T06:56:24;19.60;99.90
22035;DHT22;11181;51.002;4.356;2023-10-13T06:58:55;19.70;99.90
22035;DHT22;11181;51.002;4.356;2023-10-13T07:01:25;19.70;99.90
22035;DHT22;11181;51.002;4.356;2023-10-13T07:03:52;19.80;99.90
22035;DHT22;11181;51.002;4.356;2023-10-13T07:06:21;19.80;99.90
22035;DHT22;11181;51.002;4.356;2023-10-13T07:08:48;19.90;99.90
22035;DHT22;11181;51.002;4.356;2023-10-13T07:11:18;19.90;99.90
22035;DHT22;11181;51.002;4.356;2023-10-13T07:13:48;19.90;99.90
22035;DHT22;11181;51.002;4.356;2023-10-13T07:16:17;19.90;99.90
22035;DHT22;11181;51.002;4.356;2023-10-13T07:18:45;20.00;99.90
22035;DHT22;11181;51.002;4.356;2023-10-13T07:21:18;20.10;99.90
22035;DHT22;11181;51.002;4.356;2023-10-13T07:23:51;20.10;99.90
22035;DHT22;11181;51.002;4.356;2023-10-13T07:26:34;20.10;99.90
22035;DHT22;11181;51.002;4.356;2023-10-13T07:29:02;20.20;99.90
22035;DHT22;11181;51.002;4.356;2023-10-13T07:31:33;20.30;99.90
22035;DHT22;11181;51.002;4.356;2023-10-13T07:34:00;20.30;99.90
22035;DHT22;11181;51.002;4.356;2023-10-13T07:36:35;20.30;99.90
22035;DHT22;11181;51.002;4.356;2023-10-13T07:39:06;20.30;99.90
22035;DHT22;11181;51.002;4.356;2023-10-13T07:41:47;20.40;99.90
22035;DHT22;11181;51.002;4.356;2023-10-13T07:44:18;20.40;99.90
22035;DHT22;11181;51.002;4.356;2023-10-13T07:46:51;20.30;99.90
22035;DHT22;11181;51.002;4.356;2023-10-13T07:49:28;20.30;99.90
22035;DHT22;11181;51.002;4.356;2023-10-13T07:51:58;20.40;99.90
22035;DHT22;11181;51.002;4.356;2023-10-13T07:54:27;20.40;99.90
22035;DHT22;11181;51.002;4.356;2023-10-13T07:56:54;20.50;99.90
22035;DHT22;11181;51.002;4.356;2023-10-13T07:59:21;20.50;99.90
22035;DHT22;11181;51.002;4.356;2023-10-13T08:01:49;20.70;99.90
22035;DHT22;11181;51.002;4.356;2023-10-13T08:04:37;20.70;99.90
22035;DHT22;11181;51.002;4.356;2023-10-13T08:07:04;20.80;99.90
22035;DHT22;11181;51.002;4.356;2023-10-13T08:09:40;20.90;99.90
22035;DHT22;11181;51.002;4.356;2023-10-13T08:12:09;20.90;99.90
22035;DHT22;11181;51.002;4.356;2023-10-13T08:14:37;21.00;99.90
22035;DHT22;11181;51.002;4.356;2023-10-13T08:17:06;21.00;99.90
22035;DHT22;11181;51.002;4.356;2023-10-13T08:19:41;21.10;99.90
22035;DHT22;11181;51.002;4.356;2023-10-13T08:22:10;21.10;99.90
22035;DHT22;11181;51.002;4.356;2023-10-13T08:24:58;21.10;99.90
22035;DHT22;11181;51.002;4.356;2023-10-13T08:27:42;21.10;99.90
22035;DHT22;11181;51.002;4.356;2023-10-13T08:30:31;21.10;99.90
22035;DHT22;11181;51.002;4.356;2023-10-13T08:33:02;21.20;99.90
22035;DHT22;11181;51.002;4.356;2023-10-13T08:35:42;21.20;99.90
22035;DHT22;11181;51.002;4.356;2023-10-13T08:38:20;21.30;99.90
22035;DHT22;11181;51.002;4.356;2023-10-13T08:40:58;21.30;99.90
22035;DHT22;11181;51.002;4.356;2023-10-13T08:43:43;21.30;99.90
22035;DHT22;11181;51.002;4.356;2023-10-13T08:46:16;21.30;99.90
22035;DHT22;11181;51.002;4.356;2023-10-13T08:48:55;21.30;99.90
22035;DHT22;11181;51.002;4.356;2023-10-13T08:51:36;21.20;99.90
22035;DHT22;11181;51.002;4.356;2023-10-13T08:54:15;21.30;99.90
22035;DHT22;11181;51.002;4.356;2023-10-13T08:56:47;21.20;99.90
22035;DHT22;11181;51.002;4.356;2023-10-13T08:59:20;21.20;99.90
22035;DHT22;11181;51.002;4.356;2023-10-13T09:01:48;21.20;99.90
22035;DHT22;11181;51.002;4.356;2023-10-13T09:04:26;21.30;99.90
22035;DHT22;11181;51.002;4.356;2023-10-13T09:07:00;21.30;99.90
22035;DHT22;11181;51.002;4.356;2023-10-13T09:09:44;21.40;99.90
22035;DHT22;11181;51.002;4.356;2023-10-13T09:12:27;21.40;99.90
22035;DHT22;11181;51.002;4.356;2023-10-13T09:15:07;21.50;99.90
22035;DHT22;11181;51.002;4.356;2023-10-13T09:17:45;21.60;99.90
22035;DHT22;11181;51.002;4.356;2023-10-13T09:20:17;21.80;99.90
22035;DHT22;11181;51.002;4.356;2023-10-13T09:22:58;21.90;99.90
22035;DHT22;11181;51.002;4.356;2023-10-13T09:25:34;21.90;99.90
22035;DHT22;11181;51.002;4.356;2023-10-13T09:28:10;22.00;99.90
22035;DHT22;11181;51.002;4.356;2023-10-13T09:30:44;21.90;99.90
22035;DHT22;11181;51.002;4.356;2023-10-13T09:33:10;21.90;99.90
22035;DHT22;11181;51.002;4.356;2023-10-13T09:35:43;21.70;99.90
22035;DHT22;11181;51.002;4.356;2023-10-13T09:38:14;21.60;99.90
22035;DHT22;11181;51.002;4.356;2023-10-13T09:40:42;21.60;99.90
22035;DHT22;11181;51.002;4.356;2023-10-13T09:43:16;21.70;99.90
22035;DHT22;11181;51.002;4.356;2023-10-13T09:45:46;21.70;99.90
22035;DHT22;11181;51.002;4.356;2023-10-13T09:48:32;21.60;99.90
22035;DHT22;11181;51.002;4.356;2023-10-13T09:51:01;21.60;99.90
22035;DHT22;11181;51.002;4.356;2023-10-13T09:53:30;21.60;99.90
22035;DHT22;11181;51.002;4.356;2023-10-13T09:56:02;21.50;99.90
22035;DHT22;11181;51.002;4.356;2023-10-13T09:58:48;21.60;99.90
22035;DHT22;11181;51.002;4.356;2023-10-13T10:01:24;21.60;99.90
22035;DHT22;11181;51.002;4.356;2023-10-13T10:04:07;21.50;99.90
22035;DHT22;11181;51.002;4.356;2023-10-13T10:06:34;21.40;99.90
22035;DHT22;11181;51.002;4.356;2023-10-13T10:09:05;21.50;99.90
22035;DHT22;11181;51.002;4.356;2023-10-13T10:14:59;21.50;99.90
22035;DHT22;11181;51.002;4.356;2023-10-13T10:17:39;21.60;99.90
22035;DHT22;11181;51.002;4.356;2023-10-13T10:20:07;21.60;99.90
22035;DHT22;11181;51.002;4.356;2023-10-13T10:22:56;21.70;99.90
22035;DHT22;11181;51.002;4.356;2023-10-13T10:25:29;21.80;99.90
22035;DHT22;11181;51.002;4.356;2023-10-13T10:28:01;21.90;99.90
22035;DHT22;11181;51.002;4.356;2023-10-13T10:30:33;22.00;99.90
22035;DHT22;11181;51.002;4.356;2023-10-13T10:33:01;22.00;99.90
22035;DHT22;11181;51.002;4.356;2023-10-13T10:35:33;22.10;99.90
22035;DHT22;11181;51.002;4.356;2023-10-13T10:38:08;22.30;99.90
22035;DHT22;11181;51.002;4.356;2023-10-13T10:40:51;22.30;99.90
22035;DHT22;11181;51.002;4.356;2023-10-13T10:43:23;22.30;99.90
22035;DHT22;11181;51.002;4.356;2023-10-13T10:45:53;22.40;99.90
22035;DHT22;11181;51.002;4.356;2023-10-13T10:48:25;22.50;99.90
22035;DHT22;11181;51.002;4.356;2023-10-13T10:50:57;22.50;99.90
22035;DHT22;11181;51.002;4.356;2023-10-13T10:53:31;22.50;99.90
22035;DHT22;11181;51.002;4.356;2023-10-13T10:56:09;22.60;99.90
22035;DHT22;11181;51.002;4.356;2023-10-13T10:58:45;22.60;99.90
22035;DHT22;11181;51.002;4.356;2023-10-13T11:01:14;22.70;99.90
22035;DHT22;11181;51.002;4.356;2023-10-13T11:03:56;22.70;99.90
22035;DHT22;11181;51.002;4.356;2023-10-13T11:06:24;22.70;99.90
22035;DHT22;11181;51.002;4.356;2023-10-13T11:09:02;22.70;99.90
22035;DHT22;11181;51.002;4.356;2023-10-13T11:11:30;22.80;99.90
22035;DHT22;11181;51.002;4.356;2023-10-13T11:14:01;22.80;99.90
22035;DHT22;11181;51.002;4.356;2023-10-13T11:16:48;22.90;99.90
22035;DHT22;11181;51.002;4.356;2023-10-13T11:19:19;22.90;99.90
22035;DHT22;11181;51.002;4.356;2023-10-13T11:21:54;22.90;99.90
22035;DHT22;11181;51.002;4.356;2023-10-13T11:24:21;22.90;99.90
22035;DHT22;11181;51.002;4.356;2023-10-13T11:26:49;22.90;99.90
22035;DHT22;11181;51.002;4.356;2023-10-13T11:29:16;23.00;99.90
22035;DHT22;11181;51.002;4.356;2023-10-13T11:31:48;23.00;99.90
22035;DHT22;11181;51.002;4.356;2023-10-13T11:34:20;23.00;99.90
22035;DHT22;11181;51.002;4.356;2023-10-13T11:36:47;23.00;99.90
22035;DHT22;11181;51.002;4.356;2023-10-13T11:39:14;23.10;99.90
22035;DHT22;11181;51.002;4.356;2023-10-13T11:41:43;23.20;99.90
22035;DHT22;11181;51.002;4.356;2023-10-13T11:44:19;23.20;99.90
22035;DHT22;11181;51.002;4.356;2023-10-13T11:46:58;23.30;99.90
22035;DHT22;11181;51.002;4.356;2023-10-13T11:49:54;23.20;99.90
22035;DHT22;11181;51.002;4.356;2023-10-13T11:52:24;23.20;99.90
22035;DHT22;11181;51.002;4.356;2023-10-13T11:54:52;23.30;99.90
22035;DHT22;11181;51.002;4.356;2023-10-13T11:57:19;23.30;99.90
22035;DHT22;11181;51.002;4.356;2023-10-13T11:59:47;23.50;99.90
22035;DHT22;11181;51.002;4.356;2023-10-13T12:02:21;23.60;99.90
22035;DHT22;11181;51.002;4.356;2023-10-13T12:05:06;23.70;99.90
22035;DHT22;11181;51.002;4.356;2023-10-13T12:07:40;23.70;99.90
22035;DHT22;11181;51.002;4.356;2023-10-13T12:10:14;23.70;99.90
22035;DHT22;11181;51.002;4.356;2023-10-13T12:13:00;23.50;99.90
22035;DHT22;11181;51.002;4.356;2023-10-13T12:15:32;23.50;99.90
22035;DHT22;11181;51.002;4.356;2023-10-13T12:18:15;23.50;99.90
22035;DHT22;11181;51.002;4.356;2023-10-13T12:20:42;23.50;99.90
22035;DHT22;11181;51.002;4.356;2023-10-13T12:23:12;23.50;99.90
22035;DHT22;11181;51.002;4.356;2023-10-13T12:25:43;23.50;99.90
22035;DHT22;11181;51.002;4.356;2023-10-13T12:28:25;23.50;99.90
22035;DHT22;11181;51.002;4.356;2023-10-13T12:30:55;23.40;99.90
22035;DHT22;11181;51.002;4.356;2023-10-13T12:33:24;23.40;99.90
22035;DHT22;11181;51.002;4.356;2023-10-13T12:35:58;23.40;99.90
22035;DHT22;11181;51.002;4.356;2023-10-13T12:38:41;23.50;99.90
22035;DHT22;11181;51.002;4.356;2023-10-13T12:41:25;23.40;99.90
22035;DHT22;11181;51.002;4.356;2023-10-13T12:44:09;23.40;99.90
22035;DHT22;11181;51.002;4.356;2023-10-13T12:46:53;23.40;99.90
22035;DHT22;11181;51.002;4.356;2023-10-13T12:49:39;23.30;99.90
22035;DHT22;11181;51.002;4.356;2023-10-13T12:52:17;23.40;99.90
22035;DHT22;11181;51.002;4.356;2023-10-13T12:54:46;23.40;99.90
22035;DHT22;11181;51.002;4.356;2023-10-13T12:57:20;23.40;99.90
22035;DHT22;11181;51.002;4.356;2023-10-13T12:59:48;23.50;99.90
22035;DHT22;11181;51.002;4.356;2023-10-13T13:02:19;23.50;99.90
22035;DHT22;11181;51.002;4.356;2023-10-13T13:04:47;23.50;99.90
22035;DHT22;11181;51.002;4.356;2023-10-13T13:07:20;23.40;99.90
22035;DHT22;11181;51.002;4.356;2023-10-13T13:09:46;23.40;99.90
22035;DHT22;11181;51.002;4.356;2023-10-13T13:12:15;23.40;99.90
22035;DHT22;11181;51.002;4.356;2023-10-13T13:14:43;23.40;99.90
22035;DHT22;11181;51.002;4.356;2023-10-13T13:17:12;23.30;99.90
22035;DHT22;11181;51.002;4.356;2023-10-13T13:19:38;23.30;99.90
22035;DHT22;11181;51.002;4.356;2023-10-13T13:22:08;23.30;99.90
22035;DHT22;11181;51.002;4.356;2023-10-13T13:24:38;23.30;99.90
22035;DHT22;11181;51.002;4.356;2023-10-13T13:27:09;23.40;99.90
22035;DHT22;11181;51.002;4.356;2023-10-13T13:29:39;23.40;99.90
22035;DHT22;11181;51.002;4.356;2023-10-13T13:32:06;23.50;99.90
22035;DHT22;11181;51.002;4.356;2023-10-13T13:34:43;23.60;99.90
22035;DHT22;11181;51.002;4.356;2023-10-13T13:37:11;23.50;99.90
22035;DHT22;11181;51.002;4.356;2023-10-13T13:39:39;23.50;99.90
22035;DHT22;11181;51.002;4.356;2023-10-13T13:42:10;23.60;99.90
22035;DHT22;11181;51.002;4.356;2023-10-13T13:44:43;23.70;99.90
22035;DHT22;11181;51.002;4.356;2023-10-13T13:47:12;23.80;99.90
22035;DHT22;11181;51.002;4.356;2023-10-13T13:49:39;23.90;99.90
22035;DHT22;11181;51.002;4.356;2023-10-13T13:52:06;23.90;99.90
22035;DHT22;11181;51.002;4.356;2023-10-13T13:54:35;23.90;99.90
22035;DHT22;11181;51.002;4.356;2023-10-13T13:57:06;23.90;99.90
22035;DHT22;11181;51.002;4.356;2023-10-13T13:59:33;23.80;99.90
22035;DHT22;11181;51.002;4.356;2023-10-13T14:02:01;23.80;99.90
22035;DHT22;11181;51.002;4.356;2023-10-13T14:04:45;23.80;99.90
22035;DHT22;11181;51.002;4.356;2023-10-13T14:07:12;23.70;99.90
22035;DHT22;11181;51.002;4.356;2023-10-13T14:09:42;23.70;99.90
22035;DHT22;11181;51.002;4.356;2023-10-13T14:12:09;23.60;99.90
22035;DHT22;11181;51.002;4.356;2023-10-13T14:14:54;23.70;99.90
22035;DHT22;11181;51.002;4.356;2023-10-13T14:17:22;23.60;99.90
22035;DHT22;11181;51.002;4.356;2023-10-13T14:19:55;23.70;99.90
22035;DHT22;11181;51.002;4.356;2023-10-13T14:22:22;23.60;99.90
22035;DHT22;11181;51.002;4.356;2023-10-13T14:24:52;23.40;99.90
22035;DHT22;11181;51.002;4.356;2023-10-13T14:27:21;23.40;99.90
22035;DHT22;11181;51.002;4.356;2023-10-13T14:29:51;23.40;99.90
22035;DHT22;11181;51.002;4.356;2023-10-13T14:32:20;23.40;99.90
22035;DHT22;11181;51.002;4.356;2023-10-13T14:34:50;23.40;99.90
22035;DHT22;11181;51.002;4.356;2023-10-13T14:37:22;23.40;99.90
22035;DHT22;11181;51.002;4.356;2023-10-13T14:39:55;23.40;99.90
22035;DHT22;11181;51.002;4.356;2023-10-13T14:42:24;23.50;99.90
22035;DHT22;11181;51.002;4.356;2023-10-13T14:44:51;23.40;99.90
22035;DHT22;11181;51.002;4.356;2023-10-13T14:47:22;23.30;99.90
22035;DHT22;11181;51.002;4.356;2023-10-13T14:49:52;23.30;99.90
22035;DHT22;11181;51.002;4.356;2023-10-13T14:52:20;23.20;99.90
22035;DHT22;11181;51.002;4.356;2023-10-13T14:54:47;23.30;99.90
22035;DHT22;11181;51.002;4.356;2023-10-13T14:57:22;23.30;99.90
22035;DHT22;11181;51.002;4.356;2023-10-13T14:59:51;23.30;99.90
22035;DHT22;11181;51.002;4.356;2023-10-13T15:02:18;23.30;99.90
22035;DHT22;11181;51.002;4.356;2023-10-13T15:04:47;23.20;99.90
22035;DHT22;11181;51.002;4.356;2023-10-13T15:07:15;23.10;99.90
22035;DHT22;11181;51.002;4.356;2023-10-13T15:09:42;23.00;99.90
22035;DHT22;11181;51.002;4.356;2023-10-13T15:12:10;23.00;99.90
22035;DHT22;11181;51.002;4.356;2023-10-13T15:14:38;23.00;99.90
22035;DHT22;11181;51.002;4.356;2023-10-13T15:17:08;22.80;99.90
22035;DHT22;11181;51.002;4.356;2023-10-13T15:19:35;22.70;99.90
22035;DHT22;11181;51.002;4.356;2023-10-13T15:22:04;22.70;99.90
22035;DHT22;11181;51.002;4.356;2023-10-13T15:24:32;22.70;99.90
22035;DHT22;11181;51.002;4.356;2023-10-13T15:27:07;22.60;99.90
22035;DHT22;11181;51.002;4.356;2023-10-13T15:29:34;22.40;99.90
22035;DHT22;11181;51.002;4.356;2023-10-13T15:32:04;22.40;99.90
22035;DHT22;11181;51.002;4.356;2023-10-13T15:34:51;22.50;99.90
22035;DHT22;11181;51.002;4.356;2023-10-13T15:37:18;22.50;99.90
22035;DHT22;11181;51.002;4.356;2023-10-13T15:39:50;22.40;99.90
22035;DHT22;11181;51.002;4.356;2023-10-13T15:42:18;22.40;99.90
22035;DHT22;11181;51.002;4.356;2023-10-13T15:44:46;22.30;99.90
22035;DHT22;11181;51.002;4.356;2023-10-13T15:47:15;22.30;99.90
22035;DHT22;11181;51.002;4.356;2023-10-13T15:49:43;22.30;99.90
22035;DHT22;11181;51.002;4.356;2023-10-13T15:52:10;22.40;99.90
22035;DHT22;11181;51.002;4.356;2023-10-13T15:54:37;22.40;99.90
22035;DHT22;11181;51.002;4.356;2023-10-13T15:57:07;22.40;99.90
22035;DHT22;11181;51.002;4.356;2023-10-13T15:59:41;22.40;99.90
22035;DHT22;11181;51.002;4.356;2023-10-13T16:02:11;22.40;99.90
22035;DHT22;11181;51.002;4.356;2023-10-13T16:04:40;22.30;99.90
22035;DHT22;11181;51.002;4.356;2023-10-13T16:07:09;22.20;99.90
22035;DHT22;11181;51.002;4.356;2023-10-13T16:09:36;21.90;99.90
22035;DHT22;11181;51.002;4.356;2023-10-13T16:12:04;21.90;99.90